Time;durP1;ratioP1;P1;durP2;ratioP2;P2;SDS_P1;SDS_P2;PMS_P1;PMS_P2;Temp;Humidity;BMP_temperature;BMP_pressure;BME280_temperature;BME280_humidity;BME280_pressure;Samples;Min_cycle;Max_cycle;Signal;HPM_P1;HPM_P2
2020/12/10 00:01:54;;;;;;;55.30;25.40;;;;;;;-1.30;80.15;96446.57;1729651;83;21149;-82
2020/12/10 00:04:22;;;;;;;53.40;24.87;;;;;;;-1.23;80.14;96442.75;1711718;83;21151;-83
2020/12/10 00:06:51;;;;;;;57.88;25.68;;;;;;;-1.18;80.00;96440.76;1708385;84;21651;-83
2020/12/10 00:09:20;;;;;;;49.55;24.98;;;;;;;-1.15;79.96;96444.00;1708590;84;21072;-82
2020/12/10 00:11:50;;;;;;;53.90;25.75;;;;;;;-1.11;79.62;96436.92;1708216;84;21373;-82
2020/12/10 00:14:19;;;;;;;59.70;26.65;;;;;;;-1.11;79.67;96431.76;1708539;84;21092;-83
2020/12/10 00:16:49;;;;;;;55.73;26.85;;;;;;;-1.11;79.64;96424.84;1708927;84;21112;-83
2020/12/10 00:19:19;;;;;;;51.98;26.35;;;;;;;-1.08;79.48;96434.16;1709058;84;21528;-84
2020/12/10 00:21:47;;;;;;;53.73;25.08;;;;;;;-1.11;79.55;96440.80;1708961;84;21084;-83
2020/12/10 00:24:16;;;;;;;52.38;25.40;;;;;;;-1.06;79.53;96430.23;1709168;84;21339;-83
2020/12/10 00:26:49;;;;;;;48.98;24.10;;;;;;;-1.01;79.46;96424.33;1709103;84;21151;-83
2020/12/10 00:29:18;;;;;;;55.33;25.23;;;;;;;-0.96;79.26;96424.92;1709270;84;21060;-82
2020/12/10 00:31:47;;;;;;;48.63;23.50;;;;;;;-0.93;79.30;96424.31;1708951;84;21651;-81
2020/12/10 00:34:16;;;;;;;56.28;25.60;;;;;;;-0.84;78.96;96419.09;1709160;84;21080;-82
2020/12/10 00:36:45;;;;;;;51.30;26.07;;;;;;;-0.89;78.58;96428.84;1708914;84;21190;-83
2020/12/10 00:39:14;;;;;;;51.65;24.25;;;;;;;-0.94;78.83;96426.98;1708587;84;21174;-82
2020/12/10 00:41:42;;;;;;;55.15;27.13;;;;;;;-0.92;78.85;96429.02;1709998;84;21136;-83
2020/12/10 00:44:11;;;;;;;53.80;25.88;;;;;;;-0.93;78.84;96419.60;1708433;84;21214;-84
2020/12/10 00:46:40;;;;;;;51.40;25.17;;;;;;;-0.92;78.96;96425.14;1708313;84;21183;-83
2020/12/10 00:49:09;;;;;;;49.40;25.02;;;;;;;-0.86;78.80;96426.94;1708846;84;22338;-83
2020/12/10 00:51:38;;;;;;;52.78;25.72;;;;;;;-0.89;78.53;96413.33;1708528;84;21076;-82
2020/12/10 01:28:21;;;;;;;44.65;20.52;;;;;;;-0.98;79.35;96360.41;1818588;77;28044;-82
2020/12/10 01:30:50;;;;;;;45.60;22.30;;;;;;;-0.97;79.35;96353.48;1789510;80;21503;-83
2020/12/10 01:33:20;;;;;;;44.35;21.77;;;;;;;-0.91;79.26;96344.09;1788915;80;21205;-83
2020/12/10 01:35:48;;;;;;;41.42;21.10;;;;;;;-0.88;79.08;96338.77;1788968;80;21090;-83
2020/12/10 01:38:17;;;;;;;42.60;21.95;;;;;;;-0.84;78.78;96333.78;1789123;80;21106;-82
2020/12/10 01:40:50;;;;;;;43.80;21.52;;;;;;;-0.89;78.93;96337.08;1789158;80;21260;-81
2020/12/10 01:43:19;;;;;;;42.17;21.07;;;;;;;-0.87;78.97;96330.92;1788953;80;21038;-82
2020/12/10 01:45:48;;;;;;;39.60;20.37;;;;;;;-0.89;78.86;96325.02;1789035;80;22127;-83
2020/12/10 01:48:16;;;;;;;42.90;20.85;;;;;;;-0.89;78.99;96330.62;1788996;80;21137;-82
2020/12/10 01:50:45;;;;;;;41.58;21.50;;;;;;;-0.85;79.04;96325.20;1789075;80;21598;-82
2020/12/10 01:53:14;;;;;;;38.28;20.37;;;;;;;-0.89;78.82;96318.98;1789157;80;21562;-83
2020/12/10 01:55:45;;;;;;;34.90;17.67;;;;;;;-0.92;79.08;96314.84;1789144;80;21132;-82
2020/12/10 01:58:14;;;;;;;37.30;20.05;;;;;;;-0.95;79.13;96310.28;1789272;80;21199;-82
2020/12/10 02:00:43;;;;;;;42.45;19.62;;;;;;;-0.99;79.36;96304.47;1789064;80;21140;-81
2020/12/10 02:03:12;;;;;;;35.58;19.52;;;;;;;-0.95;79.41;96308.56;1789222;80;21516;-82
2020/12/10 02:05:44;;;;;;;36.23;18.82;;;;;;;-0.91;79.44;96307.45;1791573;80;21180;-81
2020/12/10 02:08:17;;;;;;;36.60;19.80;;;;;;;-0.88;79.22;96304.70;1792212;80;26454;-82
2020/12/10 02:10:46;;;;;;;38.67;19.73;;;;;;;-0.85;79.33;96303.69;1791560;80;21201;-81
2020/12/10 02:13:15;;;;;;;37.80;20.43;;;;;;;-0.78;79.18;96293.38;1789064;80;21160;-82
2020/12/10 02:15:49;;;;;;;39.53;20.40;;;;;;;-0.73;79.12;96300.41;1789166;80;21144;-81
2020/12/10 02:18:18;;;;;;;37.30;19.23;;;;;;;-0.72;78.85;96294.31;1788957;80;21061;-81
2020/12/10 02:20:46;;;;;;;41.60;21.27;;;;;;;-0.70;79.05;96291.20;1788746;80;21125;-82
2020/12/10 02:23:15;;;;;;;34.92;19.15;;;;;;;-0.65;78.83;96283.19;1788934;80;21539;-81
2020/12/10 02:25:44;;;;;;;36.68;18.52;;;;;;;-0.63;78.50;96270.99;1788799;80;21109;-81
2020/12/10 02:28:14;;;;;;;39.53;19.95;;;;;;;-0.76;78.50;96270.04;1777561;80;21169;-80
2020/12/10 02:30:43;;;;;;;34.58;18.67;;;;;;;-0.86;78.93;96269.26;1775169;80;21617;-79
2020/12/10 02:33:12;;;;;;;38.08;19.92;;;;;;;-0.92;79.11;96264.44;1775238;80;21038;-81
2020/12/10 02:35:42;;;;;;;36.58;19.32;;;;;;;-0.97;79.39;96270.78;1775282;80;21204;-81
2020/12/10 02:38:22;;;;;;;34.95;18.73;;;;;;;-0.97;79.51;96263.03;1775206;80;21067;-81
2020/12/10 02:40:51;;;;;;;34.10;18.37;;;;;;;-1.00;79.58;96252.88;1774946;80;21079;-81
2020/12/10 02:43:20;;;;;;;36.70;18.90;;;;;;;-1.04;79.84;96251.38;1775017;80;21081;-81
2020/12/10 02:45:50;;;;;;;34.80;18.73;;;;;;;-1.02;80.09;96241.78;1775048;80;21562;-82
2020/12/10 02:48:19;;;;;;;32.08;16.55;;;;;;;-0.98;79.93;96244.57;1775282;80;21371;-83
2020/12/10 02:50:48;;;;;;;30.72;16.90;;;;;;;-0.99;79.98;96239.87;1778394;80;21035;-81
2020/12/10 02:53:17;;;;;;;33.60;17.20;;;;;;;-0.97;80.12;96234.14;1778556;80;21125;-81
2020/12/10 02:55:45;;;;;;;30.43;16.05;;;;;;;-0.92;80.11;96230.84;1778016;80;21102;-81
2020/12/10 02:58:14;;;;;;;29.65;16.27;;;;;;;-0.86;80.05;96234.36;1774942;80;21134;-82
2020/12/10 03:00:43;;;;;;;28.67;15.80;;;;;;;-0.82;79.93;96231.98;1774791;80;21334;-82
2020/12/10 03:03:11;;;;;;;25.00;13.55;;;;;;;-0.83;79.79;96231.62;1774771;80;21047;-81
2020/12/10 03:05:40;;;;;;;30.05;17.23;;;;;;;-0.78;79.89;96238.25;1774918;80;21145;-83
2020/12/10 03:08:11;;;;;;;30.10;17.25;;;;;;;-0.76;79.60;96242.89;1775750;80;21074;-84
2020/12/10 03:10:39;;;;;;;29.12;16.65;;;;;;;-0.79;79.44;96221.91;1775125;80;21081;-82
2020/12/10 03:13:08;;;;;;;28.67;16.27;;;;;;;-0.84;79.58;96209.71;1776830;79;22271;-82
2020/12/10 03:15:37;;;;;;;23.98;13.32;;;;;;;-0.88;79.53;96201.32;1778030;78;21161;-82
2020/12/10 03:18:05;;;;;;;25.77;15.35;;;;;;;-0.88;79.75;96201.78;1774836;80;21592;-83
2020/12/10 03:20:34;;;;;;;23.20;14.68;;;;;;;-0.89;79.67;96210.00;1774684;80;21146;-83
2020/12/10 03:23:03;;;;;;;27.62;17.25;;;;;;;-0.86;79.85;96189.59;1774652;80;21146;-82
2020/12/10 03:25:32;;;;;;;27.27;14.28;;;;;;;-0.81;79.70;96201.80;1774846;80;22337;-83
2020/12/10 03:28:01;;;;;;;25.27;15.43;;;;;;;-0.83;79.56;96203.61;1774484;80;21074;-82
2020/12/10 03:30:30;;;;;;;25.08;15.48;;;;;;;-0.84;79.91;96198.08;1774853;80;21066;-82
2020/12/10 03:32:59;;;;;;;27.62;16.32;;;;;;;-0.79;79.65;96191.36;1774878;80;21058;-83
2020/12/10 03:35:28;;;;;;;22.17;13.55;;;;;;;-0.80;79.65;96181.48;1774626;80;21050;-81
2020/12/10 03:37:59;;;;;;;23.65;13.93;;;;;;;-0.75;79.61;96191.56;1774734;80;21200;-81
2020/12/10 03:40:28;;;;;;;24.05;14.83;;;;;;;-0.78;79.50;96204.19;1774726;80;21094;-81
2020/12/10 03:42:57;;;;;;;23.15;13.80;;;;;;;-0.79;79.50;96203.82;1774769;80;21133;-83
2020/12/10 03:45:26;;;;;;;24.65;15.28;;;;;;;-0.78;79.35;96202.06;1774786;80;21638;-82
2020/12/10 03:47:55;;;;;;;24.57;14.47;;;;;;;-0.84;79.42;96195.03;1774696;80;21129;-82
2020/12/10 03:50:24;;;;;;;22.10;13.58;;;;;;;-0.84;79.53;96189.03;1774630;80;21416;-81
2020/12/10 03:52:53;;;;;;;20.32;13.15;;;;;;;-0.79;79.62;96190.89;1774626;80;21237;-81
2020/12/10 03:55:22;;;;;;;19.85;11.50;;;;;;;-0.75;79.42;96174.75;1774922;80;21066;-82
2020/12/10 03:57:51;;;;;;;21.15;12.47;;;;;;;-0.78;79.32;96176.21;1774823;80;21042;-81
2020/12/10 04:00:21;;;;;;;19.50;12.03;;;;;;;-0.76;79.49;96176.98;1774912;80;21126;-82
2020/12/10 04:02:50;;;;;;;20.20;12.50;;;;;;;-0.69;79.40;96171.34;1775416;80;22352;-80
2020/12/10 04:05:19;;;;;;;20.02;11.65;;;;;;;-0.68;79.31;96161.37;1775977;80;21089;-83
2020/12/10 04:07:47;;;;;;;18.57;11.75;;;;;;;-0.64;79.21;96165.45;1775136;80;21571;-83
2020/12/10 04:10:16;;;;;;;17.87;10.78;;;;;;;-0.60;79.00;96166.08;1775464;80;21126;-83
2020/12/10 04:12:45;;;;;;;13.95;8.53;;;;;;;-0.57;79.04;96155.10;1774927;80;21582;-82
2020/12/10 04:15:14;;;;;;;14.40;8.50;;;;;;;-0.54;78.82;96147.61;1775264;80;21192;-82
2020/12/10 04:17:42;;;;;;;14.65;8.90;;;;;;;-0.55;78.74;96149.83;1776060;80;21113;-83
2020/12/10 04:20:12;;;;;;;16.02;8.68;;;;;;;-0.54;78.57;96146.31;1776250;80;21058;-82
2020/12/10 04:22:41;;;;;;;13.22;8.33;;;;;;;-0.56;78.57;96153.34;1777602;80;21082;-81
2020/12/10 04:25:09;;;;;;;13.08;8.18;;;;;;;-0.60;78.55;96148.80;1778508;79;21058;-81
2020/12/10 04:27:38;;;;;;;12.58;8.40;;;;;;;-0.56;78.70;96150.30;1777955;80;21193;-82
2020/12/10 04:30:06;;;;;;;14.28;8.88;;;;;;;-0.58;78.57;96158.61;1778551;80;21148;-83
2020/12/10 04:32:36;;;;;;;13.80;7.85;;;;;;;-0.63;78.74;96152.05;1778609;80;21138;-83
2020/12/10 04:35:05;;;;;;;13.20;8.23;;;;;;;-0.67;78.66;96145.39;1757128;80;21118;-83
2020/12/10 04:37:34;;;;;;;11.95;8.00;;;;;;;-0.74;79.06;96143.64;1778085;80;21165;-83
2020/12/10 04:40:02;;;;;;;12.80;8.60;;;;;;;-0.74;79.11;96148.80;1777736;80;21211;-82
2020/12/10 04:42:31;;;;;;;14.50;8.70;;;;;;;-0.76;79.21;96137.73;1777173;80;21058;-83
2020/12/10 04:45:00;;;;;;;12.93;7.42;;;;;;;-0.75;79.47;96137.27;1776291;80;21039;-83
2020/12/10 04:47:29;;;;;;;10.85;7.10;;;;;;;-0.69;79.48;96140.32;1776434;80;21058;-82
2020/12/10 04:50:03;;;;;;;13.72;7.50;;;;;;;-0.64;79.32;96136.17;1777435;80;21606;-83
2020/12/10 04:52:31;;;;;;;12.78;8.18;;;;;;;-0.62;79.25;96145.48;1776715;80;21255;-82
2020/12/10 04:55:00;;;;;;;14.07;7.42;;;;;;;-0.63;79.24;96145.13;1777224;80;21090;-84
2020/12/10 04:57:29;;;;;;;12.40;7.80;;;;;;;-0.60;79.44;96136.34;1778281;80;21051;-83
2020/12/10 04:59:59;;;;;;;11.60;7.80;;;;;;;-0.54;79.23;96127.75;1757412;78;20971;-82
2020/12/10 05:02:28;;;;;;;10.65;6.65;;;;;;;-0.60;78.95;96133.75;1777901;78;21272;-84
2020/12/10 05:04:58;;;;;;;11.95;8.00;;;;;;;-0.63;79.31;96125.73;1777060;78;21381;-83
2020/12/10 05:07:40;;;;;;;13.75;8.33;;;;;;;-0.61;79.49;96132.92;1774769;80;21111;-83
2020/12/10 05:10:10;;;;;;;10.05;6.53;;;;;;;-0.61;79.34;96130.34;1775463;80;21076;-82
2020/12/10 05:12:39;;;;;;;10.13;6.62;;;;;;;-0.58;79.24;96135.80;1775672;80;21035;-84
2020/12/10 05:15:08;;;;;;;11.33;6.70;;;;;;;-0.60;78.94;96132.00;1775700;80;21118;-83
2020/12/10 05:17:36;;;;;;;20.77;12.18;;;;;;;-0.67;78.83;96120.83;1775313;80;21371;-83
2020/12/10 05:20:06;;;;;;;31.93;15.88;;;;;;;-0.76;79.02;96130.44;1775747;80;21611;-84
2020/12/10 05:22:44;;;;;;;25.12;13.28;;;;;;;-0.74;79.20;96129.41;1775765;80;21178;-83
2020/12/10 05:25:14;;;;;;;12.63;6.87;;;;;;;-0.70;78.81;96131.38;1776373;80;21126;-84
2020/12/10 05:27:42;;;;;;;11.50;6.15;;;;;;;-0.70;78.47;96127.03;1777107;80;21206;-84
2020/12/10 05:30:14;;;;;;;15.50;7.97;;;;;;;-0.72;78.44;96120.27;1776168;80;21368;-83
2020/12/10 05:32:43;;;;;;;16.73;7.97;;;;;;;-0.74;78.50;96128.13;1775340;80;21058;-84
2020/12/10 05:35:23;;;;;;;23.32;10.98;;;;;;;-0.69;78.34;96127.39;1775218;80;21079;-84
2020/12/10 05:37:54;;;;;;;11.95;5.92;;;;;;;-0.65;78.34;96121.13;1775165;80;21078;-85
2020/12/10 05:40:24;;;;;;;16.15;8.85;;;;;;;-0.64;77.91;96116.31;1775186;80;21048;-85
2020/12/10 05:42:55;;;;;;;39.03;22.48;;;;;;;-0.66;77.91;96123.78;1776541;80;21614;-82
2020/12/10 05:45:26;;;;;;;24.25;13.13;;;;;;;-0.64;77.78;96126.66;1775223;80;21141;-86
2020/12/10 05:47:59;;;;;;;13.18;7.47;;;;;;;-0.64;77.48;96126.66;1775070;80;21141;-84
2020/12/10 05:50:31;;;;;;;11.35;6.05;;;;;;;-0.66;77.46;96122.48;1775250;80;21629;-85
2020/12/10 05:53:11;;;;;;;;;;;;;;;-0.66;77.54;96117.31;1778033;80;21066;-84
2020/12/10 05:55:44;;;;;;;22.85;10.98;;;;;;;-0.62;77.52;96124.80;1775769;80;21198;-85
2020/12/10 05:58:13;;;;;;;42.85;18.07;;;;;;;-0.59;77.29;96117.34;1775639;80;21306;-86
2020/12/10 06:00:43;;;;;;;37.03;19.80;;;;;;;-0.55;77.13;96113.63;1775083;80;21066;-85
2020/12/10 06:03:13;;;;;;;46.88;22.73;;;;;;;-0.51;77.00;96110.41;1774930;80;21590;-87
2020/12/10 06:05:43;;;;;;;11.05;6.12;;;;;;;-0.49;77.01;96098.20;1775603;80;21174;-82
2020/12/10 06:08:12;;;;;;;32.90;17.32;;;;;;;-0.48;76.67;96109.73;1774874;80;22136;-85
2020/12/10 06:10:43;;;;;;;49.27;25.37;;;;;;;-0.52;77.22;96106.98;1775102;80;21070;-84
2020/12/10 06:13:13;;;;;;;18.90;10.40;;;;;;;-0.52;77.10;96110.88;1774915;80;21205;-85
2020/12/10 06:15:45;;;;;;;47.43;24.15;;;;;;;-0.52;77.31;96104.41;1754866;80;21137;-86
2020/12/10 06:18:16;;;;;;;33.88;16.25;;;;;;;-0.55;76.98;96105.41;1775523;80;21661;-86
2020/12/10 06:20:46;;;;;;;45.70;22.90;;;;;;;-0.56;77.06;96102.92;1775176;80;21366;-85
2020/12/10 06:23:31;;;;;;;16.65;8.45;;;;;;;-0.55;77.38;96100.23;1775056;80;21125;-85
2020/12/10 06:26:33;;;;;;;19.80;10.43;;;;;;;-0.55;77.25;96094.23;1761441;80;21070;-84
2020/12/10 06:29:19;;;;;;;59.03;27.73;;;;;;;-0.55;77.18;96089.06;1749799;80;21122;-85
2020/12/10 06:32:17;;;;;;;16.67;9.00;;;;;;;-0.55;77.48;96093.77;1775098;80;21105;-86
2020/12/10 06:34:49;;;;;;;29.23;15.63;;;;;;;-0.57;77.35;96109.02;1774939;80;21198;-85
2020/12/10 06:37:24;;;;;;;26.45;13.32;;;;;;;-0.63;77.46;96105.05;1750080;80;21165;-86
2020/12/10 06:40:00;;;;;;;28.95;14.47;;;;;;;-0.64;77.93;96107.27;1744288;82;21186;-85
2020/12/10 06:42:45;;;;;;;16.35;10.03;;;;;;;-0.64;78.03;96112.91;1744222;82;21164;-86
2020/12/10 06:45:32;;;;;;;23.85;13.25;;;;;;;-0.60;77.95;96110.48;1741188;82;21157;-85
2020/12/10 06:48:08;;;;;;;29.45;15.03;;;;;;;-0.55;77.97;96105.87;1738101;82;22257;-85
2020/12/10 06:55:10;;;;;;;29.63;19.02;;;;;;;-0.56;77.73;96116.67;1726971;78;21136;-86
2020/12/10 06:58:06;;;;;;;16.15;8.30;;;;;;;-0.53;77.70;96109.21;1726087;83;21217;-84
2020/12/10 07:00:50;;;;;;;17.27;11.08;;;;;;;-0.45;77.33;96112.61;1744113;77;21319;-83
2020/12/10 07:03:24;;;;;;;17.35;10.25;;;;;;;-0.52;77.50;96123.80;1779616;79;21516;-85
2020/12/10 07:06:46;;;;;;;15.00;8.80;;;;;;;-0.50;77.71;96112.89;1783993;79;21229;-85
2020/12/10 07:10:35;;;;;;;15.75;9.75;;;;;;;-0.42;77.93;96118.88;1741416;78;23278;31
2020/12/10 07:13:07;;;;;;;14.10;9.35;;;;;;;-0.45;77.44;96106.15;1695920;83;21214;-89
2020/12/10 07:15:40;;;;;;;11.63;6.25;;;;;;;-0.44;77.59;96111.69;1660340;84;21150;-89
2020/12/10 07:18:14;;;;;;;11.40;7.40;;;;;;;-0.38;77.68;96103.55;1675608;85;21113;-88
2020/12/10 07:20:59;;;;;;;11.28;6.42;;;;;;;-0.35;77.96;96098.20;1651674;86;21234;-90
2020/12/10 07:23:51;;;;;;;;;;;;;;;-0.25;77.43;96099.27;1661347;84;21162;-86
2020/12/10 07:26:37;;;;;;;14.43;8.80;;;;;;;-0.21;77.48;96092.17;1659440;85;20865;-89
2020/12/10 07:29:24;;;;;;;10.88;7.35;;;;;;;-0.21;77.65;96101.22;1667871;86;21176;-85
2020/12/10 07:31:54;;;;;;;15.63;9.18;;;;;;;-0.14;77.46;96102.50;1666049;85;21197;-86
2020/12/10 07:34:26;;;;;;;10.58;7.50;;;;;;;-0.07;77.08;96094.71;1657766;85;21228;-88
2020/12/10 07:37:14;;;;;;;;;;;;;;;;;;;;;
2020/12/10 07:39:51;;;;;;;10.82;6.40;;;;;;;0.05;76.58;96074.52;1833392;77;28260;-86
2020/12/10 07:42:20;;;;;;;12.82;7.70;;;;;;;0.05;77.01;96077.11;1725540;83;21152;-85
2020/12/10 07:44:51;;;;;;;12.58;9.43;;;;;;;0.04;76.84;96084.98;1767589;81;21419;-88
2020/12/10 07:47:21;;;;;;;10.25;7.25;;;;;;;0.05;76.81;96081.00;1771968;79;21144;-86
2020/12/10 07:49:51;;;;;;;10.90;7.70;;;;;;;0.04;76.95;96092.75;1791889;80;21251;-86
2020/12/10 07:52:27;;;;;;;9.63;6.87;;;;;;;0.10;77.08;96097.07;1792407;80;21108;-87
2020/12/10 07:55:26;;;;;;;11.65;7.15;;;;;;;0.11;76.91;96101.78;1788975;80;21045;-88
2020/12/10 07:58:19;;;;;;;9.50;6.50;;;;;;;0.10;76.93;96104.84;1746857;82;21370;-88
2020/12/10 08:00:57;;;;;;;13.90;8.48;;;;;;;0.19;77.08;96102.98;1752274;81;21148;-86
2020/12/10 08:03:31;;;;;;;14.05;7.72;;;;;;;0.30;76.95;96084.17;1760110;80;21074;-89
2020/12/10 08:06:10;;;;;;;11.03;6.80;;;;;;;0.34;76.61;96079.14;1789040;80;21215;-87
2020/12/10 08:08:43;;;;;;;8.40;4.95;;;;;;;0.30;76.31;96069.07;1789285;79;21088;-89
2020/12/10 08:11:20;;;;;;;9.40;6.42;;;;;;;0.31;77.02;96061.69;1802603;79;21300;-85
2020/12/10 08:14:07;;;;;;;10.58;6.67;;;;;;;0.33;76.39;96062.41;1799362;78;21296;-85
2020/12/10 08:16:44;;;;;;;9.73;6.10;;;;;;;0.37;76.31;96060.00;1771168;78;21160;-84
2020/12/10 08:19:17;;;;;;;8.40;5.30;;;;;;;0.45;76.16;96055.14;1832187;78;21145;-88
2020/12/10 08:21:51;;;;;;;10.10;6.08;;;;;;;0.58;76.38;96055.16;1811899;78;21148;-87
2020/12/10 08:24:43;;;;;;;12.93;7.97;;;;;;;0.73;75.98;96059.34;1783689;80;21227;-87
2020/12/10 08:27:14;;;;;;;12.37;6.70;;;;;;;0.85;75.95;96061.11;1782383;80;21228;-87
2020/12/10 08:30:11;;;;;;;10.93;6.90;;;;;;;0.90;75.35;96064.23;1781858;80;21169;-88
2020/12/10 08:32:56;;;;;;;12.10;6.80;;;;;;;0.92;74.83;96072.73;1779715;80;21120;-90
2020/12/10 08:35:44;;;;;;;11.12;6.70;;;;;;;0.93;75.66;96080.03;1781599;80;21077;-87
2020/12/10 08:38:13;;;;;;;13.98;7.08;;;;;;;1.01;74.77;96072.12;1774740;79;21352;-90
2020/12/10 08:40:42;;;;;;;10.58;6.90;;;;;;;0.96;74.63;96088.91;1771432;81;21602;-88
2020/12/10 08:43:17;;;;;;;9.38;5.58;;;;;;;0.93;75.17;96080.03;1772427;79;21165;-88
2020/12/10 08:45:48;;;;;;;10.65;6.62;;;;;;;1.02;74.62;96067.30;1773353;81;21137;-87
2020/12/10 08:48:27;;;;;;;13.68;6.50;;;;;;;1.10;74.40;96075.84;1771029;80;21388;-87
2020/12/10 08:50:58;;;;;;;9.35;5.50;;;;;;;1.16;74.55;96062.94;1769741;81;21367;-85
2020/12/10 08:53:27;;;;;;;13.03;6.33;;;;;;;1.18;74.12;96067.53;1768777;80;21054;-87
2020/12/10 08:55:58;;;;;;;9.93;5.95;;;;;;;1.10;74.56;96074.55;1769394;80;21079;-87
2020/12/10 08:58:40;;;;;;;11.25;7.03;;;;;;;0.98;74.55;96077.50;1772091;79;21144;-92
2020/12/10 09:01:09;;;;;;;10.08;6.72;;;;;;;0.93;74.64;96070.96;1771497;81;21262;-90
2020/12/10 09:03:46;;;;;;;9.90;6.20;;;;;;;0.98;75.04;96055.46;1771395;80;21200;-89
2020/12/10 09:06:25;;;;;;;10.43;6.62;;;;;;;1.04;75.08;96050.33;1764579;80;21081;-89
2020/12/10 09:08:57;;;;;;;11.57;7.28;;;;;;;1.06;74.49;96057.06;1761919;80;20978;-86
2020/12/10 09:11:26;;;;;;;10.60;7.40;;;;;;;1.08;74.42;96061.34;1787452;80;21082;-87
2020/12/10 09:14:00;;;;;;;10.43;6.83;;;;;;;1.08;74.76;96076.42;1787056;80;21136;-90
2020/12/10 09:16:30;;;;;;;11.60;7.55;;;;;;;1.14;74.62;96050.08;1787414;80;21205;-90
2020/12/10 09:19:00;;;;;;;11.33;7.72;;;;;;;1.16;74.67;96047.38;1786083;80;21077;-88
2020/12/10 09:21:37;;;;;;;11.22;7.50;;;;;;;1.20;74.71;96048.36;1785981;80;21017;-88
2020/12/10 09:24:07;;;;;;;10.05;6.25;;;;;;;1.25;74.18;96044.16;1785549;80;21147;-86
2020/12/10 09:26:38;;;;;;;9.85;6.45;;;;;;;1.27;74.39;96038.39;1789597;79;21053;-90
2020/12/10 09:29:07;;;;;;;9.55;6.45;;;;;;;1.23;74.34;96050.73;1789220;78;21428;-89
2020/12/10 09:31:36;;;;;;;10.13;6.80;;;;;;;1.25;74.44;96051.48;1789068;79;21164;-88
2020/12/10 09:34:09;;;;;;;12.82;8.20;;;;;;;1.30;74.17;96041.62;1773398;79;21555;-87
2020/12/10 09:36:41;;;;;;;14.55;11.43;;;;;;;1.29;74.07;96038.64;1794158;79;21163;-89
2020/12/10 09:39:10;;;;;;;11.85;8.78;;;;;;;1.37;74.40;96020.44;1790985;78;21160;-87
2020/12/10 09:41:44;;;;;;;;;;;;;;;1.48;74.64;96004.93;1771081;78;21376;-89
2020/12/10 09:44:13;;;;;;;13.15;7.65;;;;;;;1.67;74.41;95991.04;1807767;78;20231;-86
2020/12/10 09:46:42;;;;;;;11.08;6.85;;;;;;;1.93;73.97;95978.78;1793366;78;21172;-89
2020/12/10 09:49:13;;;;;;;11.95;7.65;;;;;;;2.14;73.33;95978.53;1785988;78;21223;-89
2020/12/10 09:51:47;;;;;;;12.30;7.80;;;;;;;2.20;72.10;95988.11;1773696;78;21169;-86
2020/12/10 09:57:23;;;;;;;15.58;8.90;;;;;;;2.07;72.21;95994.17;1852335;77;28334;-90
2020/12/10 09:59:41;;;;;;;12.13;8.53;;;;;;;2.01;72.45;95987.30;1804791;78;21216;-92
2020/12/10 10:02:10;;;;;;;12.78;8.43;;;;;;;1.95;72.29;95984.67;1803841;78;21334;-89
2020/12/10 10:04:39;;;;;;;16.70;10.28;;;;;;;1.93;73.06;96012.53;1834926;78;21206;-90
2020/12/10 10:07:25;;;;;;;12.55;8.35;;;;;;;1.98;73.19;96022.12;1835419;78;21152;-92
2020/12/10 10:10:07;;;;;;;10.75;6.92;;;;;;;2.05;72.78;96025.92;1834775;78;21239;-88
2020/12/10 10:12:37;;;;;;;11.40;6.95;;;;;;;1.96;72.43;96027.91;1835125;78;21029;-88
2020/12/10 10:15:07;;;;;;;10.40;7.35;;;;;;;1.89;72.68;96030.55;1819837;78;21380;-87
2020/12/10 10:17:38;;;;;;;12.30;7.65;;;;;;;1.94;72.86;96024.56;1789326;78;21128;-88
2020/12/10 10:20:07;;;;;;;9.58;6.35;;;;;;;2.02;72.75;95996.77;1819035;78;21086;-90
2020/12/10 10:23:07;;;;;;;12.33;8.23;;;;;;;2.02;72.73;95978.13;1744549;82;21158;-84
2020/12/10 10:25:54;;;;;;;11.93;8.23;;;;;;;1.93;72.58;95985.27;1797871;78;21105;-87
2020/12/10 10:28:23;;;;;;;13.80;8.28;;;;;;;1.84;73.30;96011.91;1798179;78;21217;-91
2020/12/10 10:30:56;;;;;;;14.43;8.58;;;;;;;1.90;73.31;96008.02;1740227;81;21143;-90
2020/12/10 10:33:26;;;;;;;12.93;8.45;;;;;;;1.92;73.39;96012.64;1820718;78;21215;-90
2020/12/10 10:35:57;;;;;;;13.68;9.10;;;;;;;1.93;73.29;96012.53;1811840;78;21119;-90
2020/12/10 10:38:26;;;;;;;18.40;11.75;;;;;;;1.95;73.34;96006.74;1805396;78;21046;-89
2020/12/10 10:40:57;;;;;;;14.07;9.45;;;;;;;2.02;73.12;96006.69;1815574;77;21191;-90
2020/12/10 10:43:28;;;;;;;59.83;32.85;;;;;;;2.08;72.75;96005.42;1812245;79;21188;-89
2020/12/10 10:49:26;;;;;;;21.93;13.48;;;;;;;2.08;73.00;95995.86;1849521;77;27667;-91
2020/12/10 10:52:01;;;;;;;47.03;26.95;;;;;;;1.99;72.90;95992.61;1757414;80;21156;-88
2020/12/10 10:54:33;;;;;;;25.90;15.78;;;;;;;1.90;73.13;95993.30;1788409;80;21421;-90
2020/12/10 10:57:04;;;;;;;;;;;;;;;1.86;73.21;95985.36;1790793;80;21549;-88
2020/12/10 10:59:33;;;;;;;37.93;23.95;;;;;;;1.85;73.59;95983.70;1788344;80;20288;-91
2020/12/10 11:02:03;;;;;;;44.38;26.37;;;;;;;1.86;74.01;95985.36;1788993;80;21227;-90
2020/12/10 11:04:35;;;;;;;65.42;38.48;;;;;;;1.96;74.10;95979.05;1790261;80;21037;-89
2020/12/10 11:07:05;;;;;;;24.72;16.77;;;;;;;1.97;73.75;95969.84;1791940;77;21198;-89
2020/12/10 11:09:33;;;;;;;34.20;20.57;;;;;;;2.04;73.72;95961.13;1820736;78;21129;-89
2020/12/10 11:12:07;;;;;;;57.30;32.25;;;;;;;2.16;73.39;95970.61;1821044;78;21065;-88
2020/12/10 11:14:38;;;;;;;19.27;11.08;;;;;;;2.18;73.38;95968.72;1820966;78;21208;-89
2020/12/10 11:17:17;;;;;;;15.10;9.58;;;;;;;2.15;73.10;95974.16;1788470;80;21390;-91
2020/12/10 11:19:54;;;;;;;28.67;17.25;;;;;;;2.02;72.98;95970.33;1788884;80;21589;-89
2020/12/10 11:22:23;;;;;;;46.35;27.82;;;;;;;1.99;73.41;95974.44;1788666;80;21085;-89
2020/12/10 11:24:54;;;;;;;24.37;16.35;;;;;;;1.97;73.46;95976.80;1788856;80;21555;-87
2020/12/10 11:27:23;;;;;;;38.10;23.83;;;;;;;2.03;73.54;95973.28;1805801;78;21057;-88
2020/12/10 11:29:56;;;;;;;25.75;17.52;;;;;;;2.01;73.56;95969.13;1807596;78;21240;-89
2020/12/10 11:32:28;;;;;;;24.05;17.27;;;;;;;2.01;73.59;95976.91;1796914;78;21429;-90
2020/12/10 11:34:59;;;;;;;25.25;13.15;;;;;;;2.02;73.58;95970.33;1815014;78;21109;-89
2020/12/10 11:37:39;;;;;;;20.00;13.53;;;;;;;2.12;73.82;95967.88;1801778;78;21179;-88
2020/12/10 11:40:09;;;;;;;17.92;12.88;;;;;;;2.19;73.41;95974.27;1800938;78;21121;-88
2020/12/10 11:42:38;;;;;;;23.62;17.10;;;;;;;2.25;73.40;95991.17;1800691;78;21096;-87
2020/12/10 11:45:10;;;;;;;20.17;13.10;;;;;;;2.29;73.20;95975.25;1813302;78;21360;-91
2020/12/10 11:47:39;;;;;;;28.35;21.85;;;;;;;2.28;72.90;95980.58;1802569;78;21211;-88
2020/12/10 11:50:18;;;;;;;26.17;18.67;;;;;;;2.23;73.29;95976.19;1812278;78;21133;-93
2020/12/10 11:53:04;;;;;;;25.90;19.87;;;;;;;2.26;73.65;95983.77;1793204;78;21164;-89
2020/12/10 11:55:37;;;;;;;31.93;22.87;;;;;;;2.32;73.04;95984.14;1821738;78;21053;-90
2020/12/10 11:58:09;;;;;;;20.12;15.65;;;;;;;2.28;73.46;95980.09;1821705;78;21739;-91
2020/12/10 12:00:40;;;;;;;20.40;16.85;;;;;;;2.26;73.16;95972.91;1820681;78;21145;-90
2020/12/10 12:03:10;;;;;;;21.05;16.77;;;;;;;2.29;73.25;95964.86;1809143;78;21211;-89
2020/12/10 12:05:40;;;;;;;17.32;12.80;;;;;;;2.37;73.29;95966.89;1818359;78;21133;-89
2020/12/10 12:08:10;;;;;;;19.77;13.65;;;;;;;2.32;72.98;95974.22;1820276;78;21105;-89
2020/12/10 12:10:45;;;;;;;;;;;;;;;2.32;73.13;95971.63;1823185;78;21255;-91
2020/12/10 12:13:18;;;;;;;16.80;12.90;;;;;;;2.30;72.95;95978.68;1807125;78;20329;-88
2020/12/10 12:15:50;;;;;;;16.02;12.80;;;;;;;2.23;73.17;95966.62;1788633;80;21156;-90
2020/12/10 12:18:21;;;;;;;17.57;12.45;;;;;;;2.23;73.54;95965.80;1792992;78;21387;-90
2020/12/10 12:20:59;;;;;;;18.17;13.22;;;;;;;2.27;73.41;95960.73;1804413;78;21124;-88
2020/12/10 12:23:29;;;;;;;15.88;11.15;;;;;;;2.34;73.14;95961.94;1801179;78;21358;-88
2020/12/10 12:26:00;;;;;;;15.08;10.75;;;;;;;2.31;73.14;95959.55;1805307;78;21247;-89
2020/12/10 12:28:33;;;;;;;13.62;10.30;;;;;;;2.26;73.49;95953.89;1807531;78;21117;-90
2020/12/10 12:31:02;;;;;;;16.90;12.30;;;;;;;2.14;73.35;95958.22;1792211;78;21148;-90
2020/12/10 12:33:38;;;;;;;16.77;13.15;;;;;;;2.00;73.83;95950.59;1788225;80;20973;-91
2020/12/10 12:36:11;;;;;;;18.67;12.85;;;;;;;1.95;74.37;95943.14;1801321;78;21248;-91
2020/12/10 12:38:40;;;;;;;22.55;17.30;;;;;;;1.95;74.38;95936.64;1790137;77;21077;-90